createdAt,value
2018-11-04T00:00:55.134Z,101820.23
2018-11-04T00:03:25.288Z,101815.83
2018-11-04T00:05:55.221Z,101814.94
2018-11-04T00:08:25.122Z,101813.61
2018-11-04T00:10:55.182Z,101807.88
2018-11-04T00:13:25.569Z,101807.88
2018-11-04T00:15:55.491Z,101798.18
2018-11-04T00:18:25.496Z,101796.00
2018-11-04T00:20:55.320Z,101788.03
2018-11-04T00:23:25.364Z,101790.25
2018-11-04T00:25:55.683Z,101783.20
2018-11-04T00:28:25.483Z,101788.92
2018-11-04T00:30:55.277Z,101785.39
2018-11-04T00:33:25.143Z,101781.86
2018-11-04T00:35:54.981Z,101782.33
2018-11-04T00:38:24.802Z,101777.47
2018-11-04T00:40:55.590Z,101779.23
2018-11-04T00:43:25.389Z,101769.52
2018-11-04T00:45:55.249Z,101779.66
2018-11-04T00:48:25.209Z,101774.36
2018-11-04T00:50:54.938Z,101772.61
2018-11-04T00:53:24.864Z,101770.41
2018-11-04T00:55:55.328Z,101768.63
2018-11-04T00:58:26.211Z,101762.92
2018-11-04T01:00:56.151Z,101762.90
2018-11-04T01:03:26.019Z,101755.86
2018-11-04T01:05:55.935Z,101754.52
2018-11-04T01:08:26.386Z,101754.52
2018-11-04T01:10:56.270Z,101743.93
2018-11-04T01:13:26.192Z,101742.65
2018-11-04T01:15:55.948Z,101743.52
2018-11-04T01:18:28.011Z,101734.25
2018-11-04T01:20:57.830Z,101731.19
2018-11-04T01:23:27.679Z,101736.45
2018-11-04T01:25:57.474Z,101727.18
2018-11-04T01:28:27.234Z,101721.91
2018-11-04T01:30:57.170Z,101717.92
2018-11-04T01:33:27.161Z,101719.25
2018-11-04T01:35:57.046Z,101713.95
2018-11-04T01:38:26.926Z,101708.22
2018-11-04T01:40:57.598Z,101703.80
2018-11-04T01:43:27.405Z,101702.49
2018-11-04T01:45:57.193Z,101698.08
2018-11-04T01:48:27.102Z,101699.39
2018-11-04T01:50:56.898Z,101690.16
2018-11-04T01:53:26.788Z,101684.86
2018-11-04T01:55:56.617Z,101683.97
2018-11-04T01:58:26.428Z,101680.45
2018-11-04T02:00:56.151Z,101678.72
2018-11-04T02:03:26.046Z,101680.89
2018-11-04T02:05:55.958Z,101667.69
2018-11-04T02:08:25.850Z,101674.27
2018-11-04T02:10:55.701Z,101671.63
2018-11-04T02:13:25.448Z,101670.73
2018-11-04T02:15:55.266Z,101671.61
2018-11-04T02:18:29.522Z,101664.58
2018-11-04T02:20:59.294Z,101668.08
2018-11-04T02:23:29.069Z,101666.34
2018-11-04T02:25:58.905Z,101662.84
2018-11-04T02:28:28.722Z,101655.32
2018-11-04T02:30:58.611Z,101660.63
2018-11-04T02:33:28.339Z,101655.78
2018-11-04T02:35:58.256Z,101656.66
2018-11-04T02:38:28.268Z,101650.47
2018-11-04T02:40:58.136Z,101646.94
2018-11-04T02:43:27.931Z,101642.11
2018-11-04T02:45:57.771Z,101631.53
2018-11-04T02:48:27.554Z,101636.83
2018-11-04T02:50:57.488Z,101634.18
2018-11-04T02:53:27.306Z,101633.30
2018-11-04T02:55:57.165Z,101627.56
2018-11-04T02:58:26.977Z,101626.25
2018-11-04T03:00:56.820Z,101626.25
2018-11-04T03:03:26.610Z,101620.45
2018-11-04T03:05:57.077Z,101621.38
2018-11-04T03:08:26.828Z,101616.95
2018-11-04T03:10:56.579Z,101612.96
2018-11-04T03:13:26.322Z,101619.14
2018-11-04T03:15:56.124Z,101618.28
2018-11-04T03:18:25.953Z,101612.96
2018-11-04T03:20:55.729Z,101612.55
2018-11-04T03:23:25.502Z,101611.20
2018-11-04T03:25:55.232Z,101606.75
2018-11-04T03:28:25.053Z,101595.29
2018-11-04T03:30:54.778Z,101594.84
2018-11-04T03:33:24.654Z,101595.77
2018-11-04T03:35:54.356Z,101598.00
2018-11-04T03:38:24.089Z,101592.27
2018-11-04T03:40:55.921Z,101589.15
2018-11-04T03:43:25.746Z,101583.38
2018-11-04T03:45:55.489Z,101587.35
2018-11-04T03:48:25.261Z,101579.85
2018-11-04T03:50:55.040Z,101575.84
2018-11-04T03:53:24.851Z,101565.25
2018-11-04T03:55:54.593Z,101569.70
2018-11-04T03:58:24.413Z,101571.43
2018-11-04T04:00:54.205Z,101564.41
2018-11-04T04:03:23.981Z,101565.30
2018-11-04T04:05:53.757Z,101558.64
2018-11-04T04:08:23.563Z,101555.16
2018-11-04T04:10:53.365Z,101558.23
2018-11-04T04:13:23.171Z,101548.53
2018-11-04T04:15:52.954Z,101549.86
2018-11-04T04:18:22.744Z,101545.89
2018-11-04T04:21:01.390Z,101544.61
2018-11-04T04:23:31.145Z,101541.52
2018-11-04T04:26:01.097Z,101538.87
2018-11-04T04:28:31.090Z,101531.41
2018-11-04T04:31:00.981Z,101530.09
2018-11-04T04:33:30.828Z,101519.95
2018-11-04T04:36:00.834Z,101518.63
2018-11-04T04:38:30.578Z,101517.75
2018-11-04T04:41:00.469Z,101515.55
2018-11-04T04:43:31.148Z,101512.45
2018-11-04T04:46:00.969Z,101514.22
2018-11-04T04:48:30.852Z,101504.52
2018-11-04T04:51:00.623Z,101506.33
2018-11-04T04:53:30.532Z,101498.83
2018-11-04T04:56:00.440Z,101501.00
2018-11-04T04:58:30.278Z,101497.47
2018-11-04T05:01:00.132Z,101490.81
2018-11-04T05:03:29.925Z,101483.80
2018-11-04T05:05:59.831Z,101489.53
2018-11-04T05:08:29.592Z,101486.45
2018-11-04T05:10:59.408Z,101488.60
2018-11-04T05:13:29.224Z,101365.52
2018-11-04T05:15:59.068Z,101486.00
2018-11-04T05:18:28.963Z,101480.72
2018-11-04T05:20:58.801Z,101478.03
2018-11-04T05:23:28.632Z,101475.42
2018-11-04T05:25:58.498Z,101480.27
2018-11-04T05:28:28.309Z,101479.83
2018-11-04T05:30:58.124Z,101478.95
2018-11-04T05:33:27.909Z,101483.36
2018-11-04T05:35:57.776Z,101479.43
2018-11-04T05:38:27.593Z,101469.73
2018-11-04T05:40:57.310Z,101476.70
2018-11-04T05:43:27.082Z,101484.15
2018-11-04T05:45:56.835Z,101482.86
2018-11-04T05:48:26.575Z,101487.73
2018-11-04T05:50:56.418Z,101485.08
2018-11-04T05:53:26.262Z,101483.70
2018-11-04T05:55:56.105Z,101491.16
2018-11-04T05:58:25.997Z,101492.42
2018-11-04T06:00:55.788Z,101492.87
2018-11-04T06:03:25.533Z,101492.95
2018-11-04T06:05:55.385Z,101492.91
2018-11-04T06:08:25.271Z,101492.42
2018-11-04T06:10:55.386Z,101494.52
2018-11-04T06:13:25.141Z,101494.13
2018-11-04T06:15:54.956Z,101494.57
2018-11-04T06:18:24.688Z,101490.59
2018-11-04T06:20:55.472Z,101486.58
2018-11-04T06:23:25.274Z,101491.42
2018-11-04T06:25:55.170Z,101491.42
2018-11-04T06:28:24.977Z,101490.47
2018-11-04T06:30:54.824Z,101499.67
2018-11-04T06:33:24.836Z,101507.69
2018-11-04T06:35:54.742Z,101509.39
2018-11-04T06:38:24.535Z,101504.45
2018-11-04T06:40:54.367Z,101508.35
2018-11-04T06:43:24.065Z,101503.00
2018-11-04T06:45:53.905Z,101509.59
2018-11-04T06:48:23.834Z,101513.16
2018-11-04T06:50:53.646Z,101510.51
2018-11-04T06:53:24.071Z,101503.52
2018-11-04T06:55:53.909Z,101508.80
2018-11-04T06:58:23.739Z,101508.36
2018-11-04T07:00:53.607Z,101506.95
2018-11-04T07:03:23.369Z,101501.59
2018-11-04T07:05:53.415Z,101505.95
2018-11-04T07:08:23.450Z,101494.88
2018-11-04T07:10:53.475Z,101507.05
2018-11-04T07:13:23.334Z,101503.48
2018-11-04T07:15:53.272Z,101504.77
2018-11-04T07:18:23.135Z,101494.68
2018-11-04T07:20:52.961Z,101497.71
2018-11-04T07:23:23.028Z,101496.66
2018-11-04T07:25:52.931Z,101497.39
2018-11-04T07:28:22.852Z,101494.72
2018-11-04T07:30:52.876Z,101498.80
2018-11-04T07:33:22.615Z,101495.26
2018-11-04T07:35:52.578Z,101491.64
2018-11-04T07:38:22.403Z,101494.72
2018-11-04T07:40:52.153Z,101494.87
2018-11-04T07:43:21.927Z,101501.43
2018-11-04T07:45:51.659Z,101501.78
2018-11-04T07:48:21.485Z,101495.42
2018-11-04T07:50:51.234Z,101500.28
2018-11-04T07:53:20.903Z,101490.83
2018-11-04T07:55:50.680Z,101492.17
2018-11-04T07:58:20.493Z,101493.72
2018-11-04T08:00:50.260Z,101479.59
2018-11-04T08:03:20.021Z,101477.38
2018-11-04T08:05:49.914Z,101483.02
2018-11-04T08:08:19.711Z,101477.15
2018-11-04T08:10:49.535Z,101470.94
2018-11-04T08:13:19.302Z,101470.84
2018-11-04T08:15:49.167Z,101457.89
2018-11-04T08:18:18.939Z,101460.49
2018-11-04T08:20:48.964Z,101455.45
2018-11-04T08:23:18.735Z,101452.69
2018-11-04T08:25:48.496Z,101453.72
2018-11-04T08:28:19.067Z,101449.36
2018-11-04T08:30:48.804Z,101445.94
2018-11-04T08:33:18.657Z,101444.88
2018-11-04T08:35:48.379Z,101446.05
2018-11-04T08:38:18.163Z,101445.09
2018-11-04T08:40:47.934Z,101445.30
2018-11-04T08:43:17.757Z,101431.53
2018-11-04T08:45:47.779Z,101440.12
2018-11-04T08:48:17.473Z,101438.08
2018-11-04T08:50:47.251Z,101430.73
2018-11-04T08:53:17.008Z,101428.23
2018-11-04T08:55:46.859Z,101429.61
2018-11-04T08:58:16.662Z,101427.83
2018-11-04T09:00:46.465Z,101428.23
2018-11-04T09:03:16.367Z,101431.09
2018-11-04T09:05:46.124Z,101429.91
2018-11-04T09:08:15.912Z,101431.58
2018-11-04T09:10:45.737Z,101431.98
2018-11-04T09:13:15.808Z,101427.83
2018-11-04T09:15:45.815Z,101429.83
2018-11-04T09:18:15.589Z,101426.39
2018-11-04T09:20:45.523Z,101429.51
2018-11-04T09:23:15.534Z,101432.48
2018-11-04T09:25:45.715Z,101429.94
2018-11-04T09:28:15.532Z,101421.83
2018-11-04T09:30:45.565Z,101423.71
2018-11-04T09:33:15.512Z,101416.78
2018-11-04T09:35:45.629Z,101413.51
2018-11-04T09:38:15.367Z,101412.87
2018-11-04T09:40:45.063Z,101407.28
2018-11-04T09:43:14.823Z,101414.09
2018-11-04T09:45:44.861Z,101409.39
2018-11-04T09:48:14.900Z,101403.48
2018-11-04T09:50:44.640Z,101402.27
2018-11-04T09:53:14.419Z,101400.53
2018-11-04T09:55:44.225Z,101395.63
2018-11-04T09:58:14.891Z,101394.94
2018-11-04T10:00:44.659Z,101390.27
2018-11-04T10:03:14.416Z,101384.41
2018-11-04T10:05:44.187Z,101379.16
2018-11-04T10:08:13.587Z,101381.81
2018-11-04T10:10:43.641Z,101370.96
2018-11-04T10:13:13.429Z,101368.06
2018-11-04T10:15:43.157Z,101366.20
2018-11-04T10:18:12.901Z,101362.81
2018-11-04T10:20:42.579Z,101363.84
2018-11-04T10:23:12.185Z,101362.77
2018-11-04T10:25:42.026Z,101351.77
2018-11-04T10:28:11.654Z,101346.92
2018-11-04T10:30:41.096Z,101347.13
2018-11-04T10:33:10.944Z,101340.27
2018-11-04T10:35:40.778Z,101347.35
2018-11-04T10:38:10.738Z,101335.77
2018-11-04T10:40:40.182Z,101342.27
2018-11-04T10:43:09.617Z,101338.63
2018-11-04T10:45:38.991Z,101334.81
2018-11-04T10:48:08.467Z,101341.27
2018-11-04T10:50:38.301Z,101336.09
2018-11-04T10:53:07.786Z,101339.56
2018-11-04T10:55:37.460Z,101328.78
2018-11-04T10:58:07.267Z,101327.35
2018-11-04T11:00:41.898Z,101317.73
2018-11-04T11:03:11.297Z,101313.34
2018-11-04T11:05:41.434Z,101303.64
2018-11-04T11:08:11.294Z,101291.53
2018-11-04T11:10:40.909Z,101282.42
2018-11-04T11:13:10.536Z,101285.66
2018-11-04T11:15:40.474Z,101291.40
2018-11-04T11:18:09.925Z,101284.70
2018-11-04T11:20:39.792Z,101281.41
2018-11-04T11:23:09.286Z,101281.47
2018-11-04T11:25:38.929Z,101279.33
2018-11-04T11:28:08.386Z,101274.69
2018-11-04T11:30:37.834Z,101268.84
2018-11-04T11:33:07.380Z,101265.47
2018-11-04T11:35:36.914Z,101255.84
2018-11-04T11:38:07.237Z,101243.13
2018-11-04T11:40:36.580Z,101250.72
2018-11-04T11:43:07.016Z,101253.37
2018-11-04T11:45:36.547Z,101258.78
2018-11-04T11:48:07.768Z,101248.16
2018-11-04T11:50:37.418Z,101251.41
2018-11-04T11:53:07.339Z,101250.37
2018-11-04T11:55:37.319Z,101242.03
2018-11-04T11:58:07.219Z,101236.72
2018-11-04T12:00:37.127Z,101236.91
2018-11-04T12:03:06.893Z,101231.58
2018-11-04T12:05:36.502Z,101235.23
2018-11-04T12:08:06.365Z,101232.80
2018-11-04T12:10:36.258Z,101234.17
2018-11-04T12:13:06.159Z,101227.23
2018-11-04T12:15:35.625Z,101224.84
2018-11-04T12:18:05.302Z,101231.78
2018-11-04T12:20:34.761Z,101225.50
2018-11-04T12:23:06.741Z,101220.59
2018-11-04T12:25:36.825Z,101217.13
2018-11-04T12:28:06.543Z,101208.01
2018-11-04T12:30:36.581Z,101199.20
2018-11-04T12:33:06.414Z,101200.21
2018-11-04T12:35:35.915Z,101199.30
2018-11-04T12:38:05.433Z,101192.56
2018-11-04T12:40:35.308Z,101190.63
2018-11-04T12:43:05.096Z,101188.91
2018-11-04T12:45:34.683Z,101180.59
2018-11-04T12:48:04.888Z,101187.00
2018-11-04T12:50:34.470Z,101187.42
2018-11-04T12:53:04.216Z,101179.28
2018-11-04T12:55:34.125Z,101170.80
2018-11-04T12:58:03.693Z,101180.50
2018-11-04T13:00:33.441Z,101172.07
2018-11-04T13:03:03.341Z,101168.73
2018-11-04T13:05:33.300Z,101165.84
2018-11-04T13:08:02.816Z,101149.69
2018-11-04T13:10:32.677Z,101148.42
2018-11-04T13:13:02.147Z,101158.87
2018-11-04T13:15:31.654Z,101151.23
2018-11-04T13:18:01.254Z,101147.97
2018-11-04T13:20:30.769Z,101136.64
2018-11-04T13:23:00.340Z,101135.01
2018-11-04T13:25:29.744Z,101134.19
2018-11-04T13:27:59.239Z,101139.39
2018-11-04T13:30:28.744Z,101147.40
2018-11-04T13:32:58.201Z,101139.70
2018-11-04T13:35:28.240Z,101137.21
2018-11-04T13:37:57.675Z,101138.14
2018-11-04T13:40:27.194Z,101143.74
2018-11-04T13:42:56.832Z,101138.56
2018-11-04T13:45:26.721Z,101135.26
2018-11-04T13:47:56.198Z,101127.71
2018-11-04T13:50:25.708Z,101134.61
2018-11-04T13:52:55.588Z,101129.73
2018-11-04T13:55:25.123Z,101130.26
2018-11-04T13:57:54.628Z,101132.50
2018-11-04T14:00:24.510Z,101137.73
2018-11-04T14:02:54.007Z,101134.20
2018-11-04T14:05:23.424Z,101125.46
2018-11-04T14:07:53.726Z,101127.48
2018-11-04T14:10:23.928Z,101123.40
2018-11-04T14:12:55.357Z,101117.51
2018-11-04T14:15:30.862Z,101123.86
2018-11-04T14:18:04.562Z,101128.23
2018-11-04T14:20:37.364Z,101120.30
2018-11-04T14:23:08.536Z,101116.67
2018-11-04T14:28:26.626Z,101118.84
2018-11-04T14:31:30.964Z,101114.84
2018-11-04T14:37:49.872Z,101115.85
2018-11-04T14:40:29.558Z,101114.22
2018-11-04T14:43:14.072Z,101109.05
2018-11-04T14:45:48.910Z,101103.34
2018-11-04T14:48:18.592Z,101104.91
2018-11-04T14:50:48.198Z,101104.18
2018-11-04T14:53:17.733Z,101109.34
2018-11-04T14:55:47.920Z,101113.14
2018-11-04T14:58:18.099Z,101107.64
2018-11-04T15:00:47.734Z,101104.28
2018-11-04T15:03:17.770Z,101107.16
2018-11-04T15:05:49.936Z,101109.32
2018-11-04T15:08:19.608Z,101104.91
2018-11-04T15:10:49.118Z,101109.44
2018-11-04T15:13:18.719Z,101109.48
2018-11-04T15:15:51.917Z,101118.41
2018-11-04T15:18:41.168Z,101078.06
2018-11-04T15:21:11.897Z,101113.59
2018-11-04T15:23:42.290Z,101100.23
2018-11-04T15:26:13.309Z,101109.42
2018-11-04T15:28:43.064Z,101095.95
2018-11-04T15:31:12.948Z,101096.10
2018-11-04T15:33:46.151Z,101094.42
2018-11-04T15:36:16.667Z,101089.75
2018-11-04T15:38:46.449Z,101089.66
2018-11-04T15:41:16.239Z,101089.38
2018-11-04T15:43:48.216Z,101093.86
2018-11-04T15:46:17.896Z,101086.30
2018-11-04T15:48:47.583Z,101085.83
2018-11-04T15:51:17.536Z,101094.83
2018-11-04T15:53:47.280Z,101095.02
2018-11-04T15:56:17.375Z,101091.91
2018-11-04T15:58:46.887Z,101090.59
2018-11-04T16:01:16.424Z,101088.73
2018-11-04T16:03:47.567Z,101091.80
2018-11-04T16:06:18.377Z,101101.17
2018-11-04T16:08:49.819Z,101103.91
2018-11-04T16:11:24.488Z,101101.56
2018-11-04T16:13:54.495Z,101091.77
2018-11-04T16:16:24.363Z,101080.47
2018-11-04T16:18:55.043Z,101084.72
2018-11-04T16:21:26.286Z,101083.59
2018-11-04T16:23:56.669Z,101089.19
2018-11-04T16:26:26.869Z,101082.53
2018-11-04T16:28:57.970Z,101084.73
2018-11-04T16:31:28.238Z,101080.49
2018-11-04T16:33:58.045Z,101086.25
2018-11-04T16:36:28.573Z,101090.06
2018-11-04T16:38:59.125Z,101089.28
2018-11-04T16:41:28.905Z,101093.27
2018-11-04T16:43:59.180Z,101099.05
2018-11-04T16:46:29.325Z,101096.77
2018-11-04T16:48:59.267Z,101103.70
2018-11-04T16:51:28.943Z,101101.08
2018-11-04T16:53:58.543Z,101104.06
2018-11-04T16:56:28.323Z,101102.30
2018-11-04T16:58:57.977Z,101108.63
2018-11-04T17:01:28.149Z,101092.86
2018-11-04T17:03:58.404Z,101092.88
2018-11-04T17:06:35.096Z,101087.10
2018-11-04T17:09:06.003Z,101088.27
2018-11-04T17:11:36.958Z,101085.57
2018-11-04T17:14:07.176Z,101074.58
2018-11-04T17:16:37.543Z,101064.70
2018-11-04T17:19:19.233Z,101054.83
2018-11-04T17:21:51.341Z,101046.89
2018-11-04T17:24:21.803Z,101052.40
2018-11-04T17:26:53.359Z,101046.89
2018-11-04T17:29:24.251Z,101050.02
2018-11-04T17:31:54.507Z,101035.77
2018-11-04T17:34:25.148Z,101036.80
2018-11-04T17:36:55.446Z,101037.04
2018-11-04T17:39:25.857Z,101039.16
2018-11-04T17:41:56.234Z,101045.84
2018-11-04T17:44:26.668Z,101039.95
2018-11-04T17:46:59.599Z,101045.23
2018-11-04T17:49:30.572Z,101060.13
2018-11-04T17:52:00.845Z,101058.73
2018-11-04T17:54:31.235Z,101049.05
2018-11-04T17:57:01.738Z,101035.95
2018-11-04T17:59:32.131Z,101034.23
2018-11-04T18:02:03.929Z,101045.81
2018-11-04T18:04:35.121Z,101039.94
2018-11-04T18:07:11.730Z,101037.30
2018-11-04T18:09:42.527Z,101045.56
2018-11-04T18:12:13.037Z,101039.36
2018-11-04T18:14:43.452Z,101032.73
2018-11-04T18:17:13.539Z,101033.75
2018-11-04T18:19:43.693Z,101029.08
2018-11-04T18:22:13.867Z,101039.61
2018-11-04T18:24:45.560Z,101042.86
2018-11-04T18:27:16.376Z,101037.11
2018-11-04T18:29:47.530Z,101038.86
2018-11-04T18:32:17.936Z,101039.84
2018-11-04T18:34:47.882Z,101040.27
2018-11-04T18:37:18.074Z,101033.67
2018-11-04T18:39:48.834Z,101033.04
2018-11-04T18:42:19.264Z,101029.63
2018-11-04T18:44:49.821Z,101033.94
2018-11-04T18:47:20.298Z,101024.62
2018-11-04T18:49:50.497Z,101026.06
2018-11-04T18:52:20.754Z,101018.46
2018-11-04T18:54:50.995Z,101020.23
2018-11-04T18:57:22.270Z,101019.19
2018-11-04T18:59:52.809Z,100994.57
2018-11-04T19:02:27.027Z,101005.95
2018-11-04T19:04:59.438Z,101000.52
2018-11-04T19:07:31.485Z,100999.22
2018-11-04T19:10:17.850Z,101010.36
2018-11-04T19:12:48.257Z,101008.48
2018-11-04T19:15:20.525Z,101006.67
2018-11-04T19:17:50.435Z,101003.91
2018-11-04T19:20:20.962Z,101012.11
2018-11-04T19:22:51.170Z,101001.09
2018-11-04T19:25:21.191Z,101009.91
2018-11-04T19:27:51.548Z,101015.19
2018-11-04T19:30:21.604Z,101011.70
2018-11-04T19:32:51.842Z,101006.92
2018-11-04T19:35:21.786Z,101007.75
2018-11-04T19:37:51.997Z,101015.38
2018-11-04T19:40:22.129Z,101003.88
2018-11-04T19:42:52.355Z,101003.03
2018-11-04T19:45:27.723Z,101000.45
2018-11-04T19:47:58.616Z,101000.88
2018-11-04T19:50:32.759Z,101002.52
2018-11-04T19:53:26.580Z,101001.18
2018-11-04T19:56:18.026Z,100994.13
2018-11-04T20:05:14.813Z,100999.60
2018-11-04T20:28:25.608Z,101001.57
2018-11-04T20:31:01.278Z,101003.23
2018-11-04T20:33:32.896Z,101003.18
2018-11-04T20:36:03.759Z,100998.02
2018-11-04T20:38:39.568Z,100987.48
2018-11-04T20:41:14.718Z,100984.34
2018-11-04T20:43:44.844Z,100979.04
2018-11-04T20:46:15.237Z,100974.38
2018-11-04T20:48:50.986Z,100977.33
2018-11-04T20:51:21.284Z,100977.69
2018-11-04T20:53:51.620Z,100978.67
2018-11-04T20:56:27.000Z,100975.79
2018-11-04T20:58:57.216Z,100973.14
2018-11-04T21:01:27.723Z,100972.92
2018-11-04T21:03:57.998Z,100967.56
2018-11-04T21:06:28.243Z,100971.09
2018-11-04T21:08:58.820Z,100966.30
2018-11-04T21:11:28.976Z,100964.09
2018-11-04T21:14:05.831Z,100968.44
2018-11-04T21:16:36.443Z,100971.20
2018-11-04T21:19:06.596Z,100966.41
2018-11-04T21:21:36.621Z,100967.77
2018-11-04T21:24:06.552Z,100965.17
2018-11-04T21:26:36.509Z,100972.16
2018-11-04T21:29:06.633Z,100954.73
2018-11-04T21:31:36.489Z,100962.59
2018-11-04T21:34:06.825Z,100963.38
2018-11-04T21:36:36.733Z,100958.03
2018-11-04T21:39:09.923Z,100960.58
2018-11-04T21:41:39.770Z,100959.44
2018-11-04T21:44:09.831Z,100950.02
2018-11-04T21:46:39.603Z,100948.60
2018-11-04T21:49:09.598Z,100942.37
2018-11-04T21:51:39.580Z,100887.94
2018-11-04T21:54:09.585Z,100922.27
2018-11-04T21:56:40.088Z,100922.74
2018-11-04T21:59:09.853Z,100921.87
2018-11-04T22:01:39.928Z,100917.84
2018-11-04T22:04:09.961Z,100916.41
2018-11-04T22:06:39.800Z,100926.52
2018-11-04T22:09:10.733Z,100920.77
2018-11-04T22:11:40.732Z,100923.42
2018-11-04T22:14:10.659Z,100914.19
2018-11-04T22:16:40.721Z,100920.84
2018-11-04T22:19:10.630Z,100914.79
2018-11-04T22:21:40.474Z,100911.69
2018-11-04T22:24:10.432Z,100915.64
2018-11-04T22:26:40.346Z,100921.72
2018-11-04T22:29:10.313Z,100913.34
2018-11-04T22:31:40.277Z,100913.42
2018-11-04T22:34:10.494Z,100915.05
2018-11-04T22:36:40.484Z,100919.34
2018-11-04T22:39:10.481Z,100918.06
2018-11-04T22:41:40.402Z,100913.20
2018-11-04T22:44:10.217Z,100906.52
2018-11-04T22:46:40.702Z,100908.72
2018-11-04T22:49:10.691Z,100911.08
2018-11-04T22:51:40.509Z,100910.17
2018-11-04T22:54:10.436Z,100910.63
2018-11-04T22:56:40.282Z,100914.02
2018-11-04T22:59:10.059Z,100909.67
2018-11-04T23:01:40.102Z,100899.94
2018-11-04T23:04:09.980Z,100899.06
2018-11-04T23:06:39.696Z,100896.11
2018-11-04T23:09:10.899Z,100906.19
2018-11-04T23:11:40.887Z,100902.56
2018-11-04T23:14:10.846Z,100899.02
2018-11-04T23:16:41.665Z,100899.33
2018-11-04T23:19:11.529Z,100896.84
2018-11-04T23:21:41.345Z,100904.89
2018-11-04T23:24:11.193Z,100902.69
2018-11-04T23:26:41.317Z,100892.98
2018-11-04T23:29:11.325Z,100891.98
2018-11-04T23:31:41.153Z,100893.09
2018-11-04T23:34:11.035Z,100882.59
2018-11-04T23:36:40.836Z,100876.50
2018-11-04T23:39:11.312Z,100882.94
2018-11-04T23:41:41.720Z,100883.91
2018-11-04T23:44:11.589Z,100871.31
2018-11-04T23:46:41.386Z,100862.19
2018-11-04T23:49:11.426Z,100858.98
2018-11-04T23:51:41.341Z,100862.47
2018-11-04T23:54:11.760Z,100865.95
2018-11-04T23:56:41.652Z,100857.92
2018-11-04T23:59:11.548Z,100858.70
